Latest Coastal Weather Observations for Laverton

IDV60701

Issued at 9:31 pm EST Thursday 25 August 2016 (issued every 10 minutes, with the page automatically refreshed every 10 minutes)

About coastal observations | Map of coastal stations | Coastal observations for VIC | Marine services | Other Formats
Station Details ID: 087031 Name: LAVERTON RAAF Lat: -37.86 Lon: 144.76 Height: 20.1 m
Data from the previous 72 hours. | See also: Recent months at Laverton
Date/Time
EST
Temp
°C
Wind Pressure Rain since
9am
mm
Weather Cloud Vis
km
Sea
Height
m
Swell
Dir  Spd
kts
Gust
kts
hPa Trend Height
m
Period
s
Dir
25/09:30pm 5.3 WNW 7 8 1019.4 - 0.2 - Partly cloudy 10 - - - -
25/09:00pm 7.9 W 6 7 1019.3 - 0.2 - Cloudy 10 - - - -
25/08:30pm 8.4 W 5 7 1019.1 - 0.2 - Partly cloudy 10 - - - -
25/08:00pm 8.9 WSW 5 6 1018.9 - 0.2 - Partly cloudy 10 - - - -
25/07:30pm 9.1 WSW 5 8 1018.6 - 0.2 - Partly cloudy 10 - - - -
25/07:00pm 9.4 SW 5 7 1018.1 - 0.2 - Partly cloudy 10 - - - -
25/06:30pm 10.0 SW 6 9 1017.7 - 0.2 - Partly cloudy 10 - - - -
25/06:00pm 10.8 SSW 10 14 1017.2 - 0.2 - Partly cloudy 10 - - - -
25/05:30pm 11.2 SSW 12 16 1017.0 - 0.2 - - 10 - - - -
25/05:00pm 11.5 SSW 9 13 1016.5 - 0.2 - Partly cloudy 10 - - - -
25/04:30pm 12.3 SSW 13 16 1016.3 - 0.2 - Partly cloudy 10 - - - -
25/04:00pm 12.1 S 12 17 1016.2 - 0.2 - Partly cloudy 10 - - - -
25/03:30pm 12.7 SSW 12 17 1016.0 - 0.2 - Partly cloudy 10 - - - -
25/03:00pm 12.7 SSW 13 18 1015.9 - 0.2 - Mostly clear 10 - - - -
25/02:30pm 12.9 SW 14 18 1015.6 - 0.2 - Partly cloudy 10 - - - -
25/02:00pm 13.1 SW 13 17 1015.3 - 0.2 - Partly cloudy 10 - - - -
25/01:30pm 12.1 SW 11 15 1015.4 - 0.0 - Partly cloudy 10 - - - -
25/01:00pm 12.9 SW 13 18 1015.3 - 0.0 - Partly cloudy 10 - - - -
25/12:30pm 12.3 SW 13 21 1015.4 - 0.0 - Partly cloudy 10 - - - -
25/12:00pm 12.0 SW 13 18 1015.6 - 0.0 - Mostly clear 10 - - - -
25/11:30am 11.6 SW 12 18 1015.7 - 0.0 - Partly cloudy 10 - - - -
25/11:00am 10.5 WSW 13 16 1015.9 - 0.0 - Partly cloudy 10 - - - -
25/10:30am 10.3 SW 13 21 1015.6 - 0.0 - Partly cloudy 10 - - - -
25/10:00am 10.4 SW 12 18 1015.3 - 0.0 - - 10 - - - -
25/09:30am 9.8 WSW 9 13 1015.1 - 0.0 - Partly cloudy 10 - - - -
25/09:00am 8.7 W 9 14 1015.0 - 0.0 - - 10 - - - -
25/08:30am 6.3 W 4 6 1015.1 - 0.0 - Partly cloudy 10 - - - -
25/08:00am 5.6 SW 4 6 1014.9 - 0.0 - Partly cloudy 10 - - - -
25/07:30am 5.7 W 7 9 1014.4 - 0.0 - Partly cloudy 10 - - - -
25/07:00am 5.6 WNW 7 9 1014.2 - 0.0 - Partly cloudy 10 - - - -
25/06:30am 5.9 W 6 8 1014.0 - 0.0 - Partly cloudy 10 - - - -
25/06:00am 6.2 WNW 5 7 1013.8 - 0.0 - Cloudy 10 - - - -
25/05:30am 6.5 W 7 10 1013.6 - 0.0 - Partly cloudy 10 - - - -
25/05:00am 6.5 W 7 10 1013.3 - 0.0 - Partly cloudy 10 - - - -
25/04:30am 6.6 W 8 11 1013.1 - 0.0 - Partly cloudy 10 - - - -
25/04:00am 5.5 W 6 8 1013.0 - 0.0 - Partly cloudy 10 - - - -
25/03:30am 5.4 WNW 7 9 1013.1 - 0.0 - Partly cloudy 10 - - - -
25/03:00am 5.8 W 8 10 1013.1 - 0.0 - Partly cloudy 10 - - - -
25/02:30am 6.4 W 8 10 1013.3 - 0.0 - Partly cloudy 10 - - - -
25/02:00am 6.7 W 8 11 1013.5 - 0.0 - Partly cloudy 10 - - - -
25/01:30am 6.5 W 7 10 1013.7 - 0.0 - Partly cloudy 10 - - - -
25/01:00am 7.0 W 7 10 1013.8 - 0.0 - Partly cloudy 10 - - - -
25/12:30am 7.0 W 9 12 1013.8 - 0.0 - Partly cloudy 10 - - - -
25/12:00am 6.7 W 7 9 1013.9 - 0.0 - Mostly clear 10 - - - -
 
Date/Time
EST
Temp
°C
Wind Pressure Rain since
9am
mm
Weather Cloud Vis
km
Sea
Height
m
Swell
Dir  Spd
kts
Gust
kts
hPa Trend Height
m
Period
s
Dir
24/11:30pm 7.2 W 7 9 1014.0 - 0.0 - Partly cloudy 10 - - - -
24/11:00pm 7.9 WSW 7 9 1014.1 - 0.0 - Partly cloudy 10 - - - -
24/10:30pm 8.3 WSW 7 10 1014.3 - 0.0 - Partly cloudy 10 - - - -
24/10:00pm 8.6 WSW 6 9 1014.4 - 0.0 - Partly cloudy 10 - - - -
24/09:30pm 9.2 SW 7 9 1014.5 - 0.0 - Partly cloudy 10 - - - -
24/09:00pm 9.8 SW 7 8 1014.6 - 0.0 - Cloudy 10 - - - -
24/08:30pm 10.0 SSW 5 7 1014.5 - 0.0 - Cloudy 10 - - - -
24/08:00pm 10.3 S 8 11 1014.6 - 0.0 - Partly cloudy 10 - - - -
24/07:30pm 10.0 S 5 6 1014.5 - 0.0 - Cloudy 10 - - - -
24/07:00pm 10.1 SSE 6 9 1014.4 - 0.0 - Cloudy 10 - - - -
24/06:30pm 10.1 S 7 11 1014.2 - 0.0 - Cloudy 10 - - - -
24/06:00pm 10.0 S 8 11 1014.1 - 0.0 - Cloudy 10 - - - -
24/05:30pm 10.1 S 10 14 1014.0 - 0.0 - Partly cloudy 10 - - - -
24/05:00pm 10.0 S 12 16 1013.8 - 0.0 - Partly cloudy 10 - - - -
24/04:30pm 10.2 S 12 16 1013.6 - 0.0 - Partly cloudy 10 - - - -
24/04:00pm 10.5 S 12 16 1013.6 - 0.0 - Partly cloudy 10 - - - -
24/03:30pm 11.3 S 12 16 1013.7 - 0.0 - Partly cloudy 10 - - - -
24/03:00pm 12.2 S 9 12 1013.6 - 0.0 - Partly cloudy 10 - - - -
24/02:30pm 12.1 SSE 8 11 1013.7 - 0.0 - Partly cloudy 10 - - - -
24/02:00pm 12.4 S 9 12 1013.9 - 0.0 - Cloudy 10 - - - -
24/01:30pm 12.0 SSE 7 12 1014.1 - 0.0 - Cloudy 10 - - - -
24/01:00pm 11.9 S 7 10 1014.4 - 0.0 - Partly cloudy 10 - - - -
24/12:30pm 11.2 S 7 9 1014.7 - 0.0 - Partly cloudy 10 - - - -
24/12:00pm 11.9 S 5 8 1015.0 - 0.0 - Cloudy 10 - - - -
24/11:32am 11.8 SSW 5 8 1015.5 - 0.0 - Partly cloudy 10 - - - -
24/11:30am 11.7 SSW 5 8 1015.5 - 0.0 - Partly cloudy 10 - - - -
24/11:21am 11.3 SSW 5 8 1015.6 - 0.0 - Partly cloudy 10 - - - -
24/11:20am 11.3 SSW 6 8 1015.6 - 0.0 - Partly cloudy 10 - - - -
24/11:02am 11.0 SW 6 8 1015.8 - 0.0 - Partly cloudy 10 - - - -
24/11:00am 10.9 SW 6 8 1015.8 - 0.0 - Partly cloudy 10 - - - -
24/10:30am 10.3 SW 7 10 1016.1 - 0.0 - Cloudy 10 - - - -
24/10:00am 9.7 SW 7 9 1016.2 - 0.0 - Cloudy 10 - - - -
24/09:30am 9.3 SW 7 8 1016.5 - 0.0 - Partly cloudy 10 - - - -
24/09:00am 8.4 WSW 5 6 1016.6 - 0.0 - Cloudy 10 - - - -
24/08:30am 6.4 WNW 4 5 1016.7 - 0.0 - Partly cloudy 10 - - - -
24/08:00am 4.5 NW 3 4 1016.7 - 0.0 - Partly cloudy 10 - - - -
24/07:30am 3.0 NW 4 5 1016.8 - 0.0 - Partly cloudy 10 - - - -
24/07:00am 2.7 NW 4 5 1016.7 - 0.0 - - 10 - - - -
24/06:30am 2.9 WNW 5 6 1016.6 - 0.0 - - 10 - - - -
24/06:00am 3.6 WNW 5 6 1016.4 - 0.0 - Mostly clear 10 - - - -
24/05:30am 4.0 WNW 4 5 1016.4 - 0.0 - - 10 - - - -
24/05:00am 4.9 W 4 6 1016.4 - 0.0 - Partly cloudy 10 - - - -
24/04:30am 4.7 WNW 4 5 1016.5 - 0.0 - Partly cloudy 10 - - - -
24/04:00am 4.6 WNW 3 4 1016.4 - 0.0 - Partly cloudy 10 - - - -
24/03:30am 4.6 WNW 4 5 1016.5 - 0.0 - Partly cloudy 10 - - - -
24/03:00am 4.6 NW 6 7 1016.8 - 0.0 - Cloudy 10 - - - -
24/02:30am 4.1 NW 7 8 1016.9 - 0.0 - Partly cloudy 10 - - - -
24/02:00am 3.9 WNW 5 6 1017.1 - 0.0 - Partly cloudy 10 - - - -
24/01:30am 4.1 NW 5 6 1017.1 - 0.0 - - 10 - - - -
24/01:00am 4.1 NW 3 5 1017.6 - 0.0 - Partly cloudy 10 - - - -
24/12:30am 4.4 NW 6 7 1017.7 - 0.0 - Partly cloudy 10 - - - -
24/12:00am 4.4 NW 6 8 1017.9 - 0.0 - Mostly cloudy 10 - - - -
 
Date/Time
EST
Temp
°C
Wind Pressure Rain since
9am
mm
Weather Cloud Vis
km
Sea
Height
m
Swell
Dir  Spd
kts
Gust
kts
hPa Trend Height
m
Period
s
Dir
23/11:30pm 3.9 NW 7 8 1017.8 - 0.0 - Partly cloudy 10 - - - -
23/11:00pm 4.1 WSW 6 7 1017.8 - 0.0 - Partly cloudy 10 - - - -
23/10:30pm 4.7 SW 5 5 1017.8 - 0.0 - Partly cloudy 10 - - - -
23/10:00pm 5.4 SSE 2 5 1017.9 - 0.0 - - 10 - - - -
23/09:30pm 6.3 SSE 3 3 1018.1 - 0.0 - - 10 - - - -
23/09:00pm 6.6 SSE 3 4 1018.2 - 0.0 - - 10 - - - -
23/08:30pm 8.0 S 3 4 1018.0 - 0.0 - - 10 - - - -
23/08:00pm 8.2 S 3 4 1017.9 - 0.0 - - 10 - - - -
23/07:30pm 9.0 SSE 5 7 1017.7 - 0.0 - - 10 - - - -
23/07:00pm 9.2 SSE 5 6 1017.6 - 0.0 - - 10 - - - -
23/06:30pm 9.5 SE 5 7 1017.6 - 0.0 - - 10 - - - -
23/06:00pm 10.0 SSE 6 7 1017.6 - 0.0 - - 10 - - - -
23/05:30pm 11.0 S 9 12 1017.7 - 0.0 - - 10 - - - -
23/05:00pm 11.4 SSW 8 10 1017.5 - 0.0 - Partly cloudy 10 - - - -
23/04:30pm 11.6 S 8 11 1017.6 - 0.0 - Partly cloudy 10 - - - -
23/04:00pm 12.4 S 7 12 1017.6 - 0.0 - Partly cloudy 10 - - - -
23/03:30pm 12.3 S 7 10 1017.4 - 0.0 - Cloudy 10 - - - -
23/03:00pm 12.9 SSE 7 11 1017.0 - 0.0 - Mostly cloudy 10 - - - -
23/02:30pm 12.9 SSE 7 10 1017.0 - 0.0 - Partly cloudy 10 - - - -
23/02:00pm 13.1 SSE 7 13 1016.7 - 0.0 - - 10 - - - -
23/01:30pm 12.8 SSE 8 11 1016.7 - 0.0 - Partly cloudy 10 - - - -
23/01:00pm 12.6 SSE 7 12 1016.8 - 0.0 - - 10 - - - -
23/12:30pm 11.9 SSE 7 12 1017.1 - 0.0 - - 10 - - - -
23/12:00pm 12.6 SE 7 12 1017.2 - 0.0 - - 10 - - - -
23/11:30am 12.6 S 5 8 1017.5 - 0.0 - - 10 - - - -
23/11:00am 12.1 S 7 12 1017.7 - 0.0 - - 10 - - - -
23/10:30am 12.1 SSE 5 8 1018.0 - 0.0 - Partly cloudy 10 - - - -
23/10:00am 11.7 SW 3 5 1018.1 - 0.0 - - 10 - - - -
23/09:30am 10.8 SW 4 6 1018.2 - 0.0 - - 10 - - - -
23/09:00am 9.8 SW 5 6 1018.2 - 1.6 - - 10 - - - -
23/08:30am 8.2 WSW 3 4 1018.1 - 1.6 - Partly cloudy 10 - - - -
23/08:00am 7.5 WSW 4 5 1017.9 - 1.6 - Cloudy 10 - - - -
23/07:30am 6.6 WSW 3 4 1017.6 - 1.6 - Partly cloudy 10 - - - -
23/07:00am 6.9 WSW 5 5 1017.2 - 1.6 - Partly cloudy 10 - - - -
23/06:30am 7.0 WSW 4 5 1016.9 - 1.6 - Partly cloudy 10 - - - -
23/06:00am 7.5 WSW 4 5 1016.6 - 1.6 - Cloudy 10 - - - -
23/05:30am 7.4 WSW 4 5 1016.5 - 1.6 - Partly cloudy 10 - - - -
23/05:00am 7.1 WSW 4 5 1016.3 - 1.6 - Partly cloudy 10 - - - -
23/04:30am 6.8 WSW 5 6 1016.1 - 1.6 - Partly cloudy 10 - - - -
23/04:03am 6.7 WSW 6 6 1015.9 - 1.6 - Partly cloudy 10 - - - -
23/04:00am 6.7 WSW 6 6 1015.9 - 1.6 - Partly cloudy 10 - - - -
23/03:43am 6.4 WSW 4 6 1015.9 - 1.6 - Partly cloudy 7 - - - -
23/03:30am 7.0 WSW 4 5 1015.8 - 1.6 - Partly cloudy 10 - - - -
23/03:06am 7.1 WSW 4 5 1015.9 - 1.6 - Partly cloudy 10 - - - -
23/03:00am 6.8 WSW 4 5 1015.9 - 1.6 - Mostly clear 9 - - - -
23/02:45am 7.1 WSW 1 5 1015.8 - 1.6 - Partly cloudy 7 - - - -
23/02:30am 7.9 CALM 0 0 1015.8 - 1.6 - Cloudy 10 - - - -
23/02:00am 8.3 WSW 3 4 1016.1 - 1.6 - Cloudy 10 - - - -
23/01:30am 8.5 WSW 4 5 1016.2 - 1.6 - Partly cloudy 10 - - - -
23/01:00am 8.4 WSW 4 5 1016.3 - 1.6 - Partly cloudy 10 - - - -
23/12:30am 8.7 SW 4 5 1016.4 - 1.6 - Partly cloudy 10 - - - -
23/12:00am 8.8 WSW 4 5 1016.3 - 1.6 - Cloudy 10 - - - -
 
Date/Time
EST
Temp
°C
Wind Pressure Rain since
9am
mm
Weather Cloud Vis
km
Sea
Height
m
Swell
Dir  Spd
kts
Gust
kts
hPa Trend Height
m
Period
s
Dir
22/11:30pm 8.9 WSW 4 4 1016.3 - 1.6 - Cloudy 10 - - - -
22/11:00pm 8.8 WSW 4 5 1016.4 - 1.6 - Partly cloudy 10 - - - -
22/10:30pm 8.9 WSW 3 4 1016.3 - 1.6 - Partly cloudy 10 - - - -
22/10:00pm 9.1 WSW 4 4 1016.2 - 1.6 - Partly cloudy 10 - - - -

Other Formats:

Comma delimited format used in spreadsheet applications
http://www.bom.gov.au/fwo/IDV60701/IDV60701.94865.axf

JavaScript Object Notation format (JSON) in row-major order
http://www.bom.gov.au/fwo/IDV60701/IDV60701.94865.json